sensor_id;sensor_type;location;lat;lon;timestamp;P1;durP1;ratioP1;P2;durP2;ratioP2
10100;SDS011;5090;51.258;4.436;2022-08-21T00:00:05;11.30;;;3.00;;
10100;SDS011;5090;51.258;4.436;2022-08-21T00:02:32;8.83;;;2.80;;
10100;SDS011;5090;51.258;4.436;2022-08-21T00:05:00;8.07;;;2.97;;
10100;SDS011;5090;51.258;4.436;2022-08-21T00:07:28;13.27;;;3.30;;
10100;SDS011;5090;51.258;4.436;2022-08-21T00:09:57;8.80;;;2.80;;
10100;SDS011;5090;51.258;4.436;2022-08-21T00:12:26;10.30;;;3.10;;
10100;SDS011;5090;51.258;4.436;2022-08-21T00:14:54;8.93;;;2.90;;
10100;SDS011;5090;51.258;4.436;2022-08-21T00:17:22;8.67;;;3.10;;
10100;SDS011;5090;51.258;4.436;2022-08-21T00:19:50;9.80;;;2.63;;
10100;SDS011;5090;51.258;4.436;2022-08-21T00:22:19;13.70;;;3.40;;
10100;SDS011;5090;51.258;4.436;2022-08-21T00:24:47;9.20;;;3.30;;
10100;SDS011;5090;51.258;4.436;2022-08-21T00:27:15;6.73;;;2.93;;
10100;SDS011;5090;51.258;4.436;2022-08-21T00:29:43;10.27;;;3.70;;
10100;SDS011;5090;51.258;4.436;2022-08-21T00:32:11;10.63;;;3.40;;
10100;SDS011;5090;51.258;4.436;2022-08-21T00:34:39;7.30;;;2.70;;
10100;SDS011;5090;51.258;4.436;2022-08-21T00:37:08;9.80;;;3.67;;
10100;SDS011;5090;51.258;4.436;2022-08-21T00:39:36;5.40;;;3.03;;
10100;SDS011;5090;51.258;4.436;2022-08-21T00:42:04;9.90;;;3.53;;
10100;SDS011;5090;51.258;4.436;2022-08-21T00:44:32;9.40;;;3.20;;
10100;SDS011;5090;51.258;4.436;2022-08-21T00:47:00;13.60;;;3.50;;
10100;SDS011;5090;51.258;4.436;2022-08-21T00:49:34;7.50;;;3.73;;
10100;SDS011;5090;51.258;4.436;2022-08-21T00:52:03;13.07;;;3.30;;
10100;SDS011;5090;51.258;4.436;2022-08-21T00:54:31;8.23;;;3.77;;
10100;SDS011;5090;51.258;4.436;2022-08-21T00:57:00;6.93;;;3.10;;
10100;SDS011;5090;51.258;4.436;2022-08-21T00:59:28;6.53;;;3.17;;
10100;SDS011;5090;51.258;4.436;2022-08-21T01:01:56;13.77;;;3.63;;
10100;SDS011;5090;51.258;4.436;2022-08-21T01:04:24;8.03;;;3.40;;
10100;SDS011;5090;51.258;4.436;2022-08-21T01:06:53;7.40;;;3.47;;
10100;SDS011;5090;51.258;4.436;2022-08-21T01:09:21;11.20;;;3.33;;
10100;SDS011;5090;51.258;4.436;2022-08-21T01:11:49;8.30;;;3.27;;
10100;SDS011;5090;51.258;4.436;2022-08-21T01:14:18;7.87;;;2.73;;
10100;SDS011;5090;51.258;4.436;2022-08-21T01:16:46;7.10;;;2.60;;
10100;SDS011;5090;51.258;4.436;2022-08-21T01:19:14;7.83;;;2.43;;
10100;SDS011;5090;51.258;4.436;2022-08-21T01:21:42;6.80;;;3.03;;
10100;SDS011;5090;51.258;4.436;2022-08-21T01:24:11;7.33;;;2.80;;
10100;SDS011;5090;51.258;4.436;2022-08-21T01:26:39;7.90;;;2.87;;
10100;SDS011;5090;51.258;4.436;2022-08-21T01:29:15;8.47;;;3.60;;
10100;SDS011;5090;51.258;4.436;2022-08-21T01:31:42;11.33;;;2.67;;
10100;SDS011;5090;51.258;4.436;2022-08-21T01:34:10;10.77;;;3.37;;
10100;SDS011;5090;51.258;4.436;2022-08-21T01:36:38;10.40;;;2.80;;
10100;SDS011;5090;51.258;4.436;2022-08-21T01:39:06;6.73;;;2.40;;
10100;SDS011;5090;51.258;4.436;2022-08-21T01:41:36;6.90;;;2.60;;
10100;SDS011;5090;51.258;4.436;2022-08-21T01:44:05;6.60;;;2.37;;
10100;SDS011;5090;51.258;4.436;2022-08-21T01:46:33;6.87;;;2.30;;
10100;SDS011;5090;51.258;4.436;2022-08-21T01:49:01;7.73;;;2.60;;
10100;SDS011;5090;51.258;4.436;2022-08-21T01:51:29;8.13;;;2.57;;
10100;SDS011;5090;51.258;4.436;2022-08-21T01:53:58;5.07;;;2.33;;
10100;SDS011;5090;51.258;4.436;2022-08-21T01:56:26;6.47;;;2.23;;
10100;SDS011;5090;51.258;4.436;2022-08-21T01:58:54;8.63;;;2.60;;
10100;SDS011;5090;51.258;4.436;2022-08-21T02:01:22;9.57;;;2.60;;
10100;SDS011;5090;51.258;4.436;2022-08-21T02:03:50;6.00;;;2.20;;
10100;SDS011;5090;51.258;4.436;2022-08-21T02:06:19;6.53;;;2.10;;
10100;SDS011;5090;51.258;4.436;2022-08-21T02:08:47;9.83;;;2.57;;
10100;SDS011;5090;51.258;4.436;2022-08-21T02:11:15;9.53;;;2.53;;
10100;SDS011;5090;51.258;4.436;2022-08-21T02:13:43;9.43;;;2.60;;
10100;SDS011;5090;51.258;4.436;2022-08-21T02:16:12;5.33;;;2.37;;
10100;SDS011;5090;51.258;4.436;2022-08-21T02:18:40;10.57;;;2.73;;
10100;SDS011;5090;51.258;4.436;2022-08-21T02:21:08;9.27;;;2.47;;
10100;SDS011;5090;51.258;4.436;2022-08-21T02:23:36;6.73;;;2.77;;
10100;SDS011;5090;51.258;4.436;2022-08-21T02:26:06;9.60;;;2.80;;
10100;SDS011;5090;51.258;4.436;2022-08-21T02:28:33;12.73;;;3.10;;
10100;SDS011;5090;51.258;4.436;2022-08-21T02:31:01;7.77;;;2.97;;
10100;SDS011;5090;51.258;4.436;2022-08-21T02:33:29;11.27;;;2.80;;
10100;SDS011;5090;51.258;4.436;2022-08-21T02:35:58;10.33;;;2.53;;
10100;SDS011;5090;51.258;4.436;2022-08-21T02:38:28;5.70;;;2.73;;
10100;SDS011;5090;51.258;4.436;2022-08-21T02:40:54;8.77;;;2.93;;
10100;SDS011;5090;51.258;4.436;2022-08-21T02:43:24;11.30;;;2.70;;
10100;SDS011;5090;51.258;4.436;2022-08-21T02:45:51;9.00;;;2.50;;
10100;SDS011;5090;51.258;4.436;2022-08-21T02:48:20;10.30;;;2.97;;
10100;SDS011;5090;51.258;4.436;2022-08-21T02:50:48;4.97;;;2.23;;
10100;SDS011;5090;51.258;4.436;2022-08-21T02:53:15;8.93;;;2.33;;
10100;SDS011;5090;51.258;4.436;2022-08-21T02:55:44;9.03;;;2.43;;
10100;SDS011;5090;51.258;4.436;2022-08-21T02:58:13;9.53;;;2.73;;
10100;SDS011;5090;51.258;4.436;2022-08-21T03:00:40;6.60;;;2.30;;
10100;SDS011;5090;51.258;4.436;2022-08-21T03:03:08;9.80;;;2.27;;
10100;SDS011;5090;51.258;4.436;2022-08-21T03:05:37;9.00;;;2.10;;
10100;SDS011;5090;51.258;4.436;2022-08-21T03:08:07;9.97;;;2.50;;
10100;SDS011;5090;51.258;4.436;2022-08-21T03:10:35;13.37;;;2.77;;
10100;SDS011;5090;51.258;4.436;2022-08-21T03:13:03;12.77;;;2.77;;
10100;SDS011;5090;51.258;4.436;2022-08-21T03:15:31;8.57;;;2.47;;
10100;SDS011;5090;51.258;4.436;2022-08-21T03:17:59;13.37;;;2.50;;
10100;SDS011;5090;51.258;4.436;2022-08-21T03:20:27;8.37;;;2.60;;
10100;SDS011;5090;51.258;4.436;2022-08-21T03:22:55;10.57;;;2.50;;
10100;SDS011;5090;51.258;4.436;2022-08-21T03:25:25;9.97;;;2.03;;
10100;SDS011;5090;51.258;4.436;2022-08-21T03:27:52;10.20;;;2.20;;
10100;SDS011;5090;51.258;4.436;2022-08-21T03:30:20;11.83;;;2.83;;
10100;SDS011;5090;51.258;4.436;2022-08-21T03:32:48;8.10;;;2.30;;
10100;SDS011;5090;51.258;4.436;2022-08-21T03:35:17;3.97;;;2.30;;
10100;SDS011;5090;51.258;4.436;2022-08-21T03:37:45;8.07;;;2.70;;
10100;SDS011;5090;51.258;4.436;2022-08-21T03:40:14;7.67;;;2.57;;
10100;SDS011;5090;51.258;4.436;2022-08-21T03:42:41;7.77;;;2.07;;
10100;SDS011;5090;51.258;4.436;2022-08-21T03:45:10;7.87;;;2.30;;
10100;SDS011;5090;51.258;4.436;2022-08-21T03:47:38;8.67;;;2.27;;
10100;SDS011;5090;51.258;4.436;2022-08-21T03:50:06;5.73;;;1.77;;
10100;SDS011;5090;51.258;4.436;2022-08-21T03:52:34;7.90;;;2.17;;
10100;SDS011;5090;51.258;4.436;2022-08-21T03:55:04;10.17;;;2.60;;
10100;SDS011;5090;51.258;4.436;2022-08-21T03:57:32;7.33;;;2.37;;
10100;SDS011;5090;51.258;4.436;2022-08-21T04:00:00;9.73;;;2.80;;
10100;SDS011;5090;51.258;4.436;2022-08-21T04:02:28;8.47;;;2.70;;
10100;SDS011;5090;51.258;4.436;2022-08-21T04:04:57;8.67;;;2.43;;
10100;SDS011;5090;51.258;4.436;2022-08-21T04:07:25;7.70;;;2.43;;
10100;SDS011;5090;51.258;4.436;2022-08-21T04:09:54;8.50;;;2.33;;
10100;SDS011;5090;51.258;4.436;2022-08-21T04:12:22;11.27;;;2.40;;
10100;SDS011;5090;51.258;4.436;2022-08-21T04:14:50;9.57;;;2.57;;
10100;SDS011;5090;51.258;4.436;2022-08-21T04:17:18;11.07;;;2.30;;
10100;SDS011;5090;51.258;4.436;2022-08-21T04:19:46;11.23;;;2.73;;
10100;SDS011;5090;51.258;4.436;2022-08-21T04:22:15;8.97;;;2.60;;
10100;SDS011;5090;51.258;4.436;2022-08-21T04:24:43;9.67;;;2.80;;
10100;SDS011;5090;51.258;4.436;2022-08-21T04:27:11;11.07;;;2.53;;
10100;SDS011;5090;51.258;4.436;2022-08-21T04:29:39;7.93;;;2.47;;
10100;SDS011;5090;51.258;4.436;2022-08-21T04:32:08;7.93;;;2.73;;
10100;SDS011;5090;51.258;4.436;2022-08-21T04:34:36;12.50;;;2.83;;
10100;SDS011;5090;51.258;4.436;2022-08-21T04:37:04;14.83;;;3.10;;
10100;SDS011;5090;51.258;4.436;2022-08-21T04:39:32;10.17;;;2.37;;
10100;SDS011;5090;51.258;4.436;2022-08-21T04:42:00;10.00;;;2.63;;
10100;SDS011;5090;51.258;4.436;2022-08-21T04:44:29;8.93;;;2.80;;
10100;SDS011;5090;51.258;4.436;2022-08-21T04:46:57;8.03;;;2.27;;
10100;SDS011;5090;51.258;4.436;2022-08-21T04:49:25;10.63;;;2.57;;
10100;SDS011;5090;51.258;4.436;2022-08-21T04:51:53;9.43;;;2.47;;
10100;SDS011;5090;51.258;4.436;2022-08-21T04:54:21;10.13;;;2.50;;
10100;SDS011;5090;51.258;4.436;2022-08-21T04:56:52;8.60;;;2.73;;
10100;SDS011;5090;51.258;4.436;2022-08-21T04:59:21;10.27;;;2.70;;
10100;SDS011;5090;51.258;4.436;2022-08-21T05:01:47;12.30;;;2.63;;
10100;SDS011;5090;51.258;4.436;2022-08-21T05:04:16;9.70;;;2.73;;
10100;SDS011;5090;51.258;4.436;2022-08-21T05:06:44;9.73;;;2.70;;
10100;SDS011;5090;51.258;4.436;2022-08-21T05:09:12;10.53;;;2.90;;
10100;SDS011;5090;51.258;4.436;2022-08-21T05:11:40;7.33;;;2.33;;
10100;SDS011;5090;51.258;4.436;2022-08-21T05:14:09;15.27;;;2.90;;
10100;SDS011;5090;51.258;4.436;2022-08-21T05:16:36;6.50;;;2.60;;
10100;SDS011;5090;51.258;4.436;2022-08-21T05:19:05;9.63;;;2.23;;
10100;SDS011;5090;51.258;4.436;2022-08-21T05:21:34;7.37;;;2.10;;
10100;SDS011;5090;51.258;4.436;2022-08-21T05:24:02;10.77;;;2.27;;
10100;SDS011;5090;51.258;4.436;2022-08-21T05:26:30;7.47;;;2.57;;
10100;SDS011;5090;51.258;4.436;2022-08-21T05:28:58;8.97;;;2.10;;
10100;SDS011;5090;51.258;4.436;2022-08-21T05:31:27;6.27;;;1.60;;
10100;SDS011;5090;51.258;4.436;2022-08-21T05:33:55;8.07;;;2.00;;
10100;SDS011;5090;51.258;4.436;2022-08-21T05:36:23;10.65;;;2.17;;
10100;SDS011;5090;51.258;4.436;2022-08-21T05:38:52;13.02;;;2.47;;
10100;SDS011;5090;51.258;4.436;2022-08-21T05:41:20;6.80;;;1.62;;
10100;SDS011;5090;51.258;4.436;2022-08-21T05:43:48;12.48;;;2.08;;
10100;SDS011;5090;51.258;4.436;2022-08-21T05:46:16;10.90;;;2.45;;
10100;SDS011;5090;51.258;4.436;2022-08-21T05:48:44;6.50;;;1.70;;
10100;SDS011;5090;51.258;4.436;2022-08-21T05:51:14;9.75;;;2.20;;
10100;SDS011;5090;51.258;4.436;2022-08-21T05:53:41;7.80;;;1.92;;
10100;SDS011;5090;51.258;4.436;2022-08-21T05:56:10;6.07;;;1.60;;
10100;SDS011;5090;51.258;4.436;2022-08-21T05:58:38;8.43;;;1.77;;
10100;SDS011;5090;51.258;4.436;2022-08-21T06:01:06;5.75;;;1.42;;
10100;SDS011;5090;51.258;4.436;2022-08-21T06:03:35;4.60;;;1.60;;
10100;SDS011;5090;51.258;4.436;2022-08-21T06:06:02;8.75;;;1.60;;
10100;SDS011;5090;51.258;4.436;2022-08-21T06:08:31;9.02;;;1.85;;
10100;SDS011;5090;51.258;4.436;2022-08-21T06:10:59;8.77;;;1.67;;
10100;SDS011;5090;51.258;4.436;2022-08-21T06:13:27;8.00;;;1.58;;
10100;SDS011;5090;51.258;4.436;2022-08-21T06:16:15;8.82;;;1.60;;
10100;SDS011;5090;51.258;4.436;2022-08-21T06:18:44;6.90;;;2.00;;
10100;SDS011;5090;51.258;4.436;2022-08-21T06:21:12;6.80;;;1.58;;
10100;SDS011;5090;51.258;4.436;2022-08-21T06:23:40;5.35;;;1.70;;
10100;SDS011;5090;51.258;4.436;2022-08-21T06:26:08;9.63;;;2.05;;
10100;SDS011;5090;51.258;4.436;2022-08-21T06:28:36;8.88;;;2.05;;
10100;SDS011;5090;51.258;4.436;2022-08-21T06:31:11;8.95;;;1.60;;
10100;SDS011;5090;51.258;4.436;2022-08-21T06:33:38;12.40;;;1.62;;
10100;SDS011;5090;51.258;4.436;2022-08-21T06:36:06;7.70;;;2.08;;
10100;SDS011;5090;51.258;4.436;2022-08-21T06:38:35;6.00;;;1.98;;
10100;SDS011;5090;51.258;4.436;2022-08-21T06:41:04;5.57;;;1.83;;
10100;SDS011;5090;51.258;4.436;2022-08-21T06:43:32;8.13;;;1.98;;
10100;SDS011;5090;51.258;4.436;2022-08-21T06:46:00;7.78;;;1.92;;
10100;SDS011;5090;51.258;4.436;2022-08-21T06:48:29;8.48;;;2.00;;
10100;SDS011;5090;51.258;4.436;2022-08-21T06:50:58;6.78;;;1.70;;
10100;SDS011;5090;51.258;4.436;2022-08-21T06:53:31;9.00;;;1.90;;
10100;SDS011;5090;51.258;4.436;2022-08-21T06:55:59;6.62;;;1.80;;
10100;SDS011;5090;51.258;4.436;2022-08-21T06:58:27;6.70;;;2.10;;
10100;SDS011;5090;51.258;4.436;2022-08-21T07:00:55;6.30;;;1.77;;
10100;SDS011;5090;51.258;4.436;2022-08-21T07:03:25;6.25;;;2.00;;
10100;SDS011;5090;51.258;4.436;2022-08-21T07:05:52;9.93;;;2.17;;
10100;SDS011;5090;51.258;4.436;2022-08-21T07:08:20;9.40;;;1.95;;
10100;SDS011;5090;51.258;4.436;2022-08-21T07:10:48;7.28;;;1.92;;
10100;SDS011;5090;51.258;4.436;2022-08-21T07:13:16;7.22;;;1.90;;
10100;SDS011;5090;51.258;4.436;2022-08-21T07:15:45;8.77;;;1.90;;
10100;SDS011;5090;51.258;4.436;2022-08-21T07:18:13;9.57;;;2.03;;
10100;SDS011;5090;51.258;4.436;2022-08-21T07:20:41;8.18;;;2.35;;
10100;SDS011;5090;51.258;4.436;2022-08-21T07:23:12;7.93;;;2.25;;
10100;SDS011;5090;51.258;4.436;2022-08-21T07:25:39;11.15;;;1.98;;
10100;SDS011;5090;51.258;4.436;2022-08-21T07:28:07;11.75;;;3.22;;
10100;SDS011;5090;51.258;4.436;2022-08-21T07:30:35;13.77;;;2.42;;
10100;SDS011;5090;51.258;4.436;2022-08-21T07:33:04;10.98;;;2.03;;
10100;SDS011;5090;51.258;4.436;2022-08-21T07:35:33;12.57;;;2.03;;
10100;SDS011;5090;51.258;4.436;2022-08-21T07:38:01;6.70;;;1.73;;
10100;SDS011;5090;51.258;4.436;2022-08-21T07:40:29;10.13;;;2.22;;
10100;SDS011;5090;51.258;4.436;2022-08-21T07:42:58;11.80;;;2.10;;
10100;SDS011;5090;51.258;4.436;2022-08-21T07:45:26;9.80;;;1.70;;
10100;SDS011;5090;51.258;4.436;2022-08-21T07:47:54;9.75;;;2.30;;
10100;SDS011;5090;51.258;4.436;2022-08-21T07:50:23;9.55;;;1.85;;
10100;SDS011;5090;51.258;4.436;2022-08-21T07:52:51;6.82;;;2.15;;
10100;SDS011;5090;51.258;4.436;2022-08-21T07:55:20;12.05;;;2.35;;
10100;SDS011;5090;51.258;4.436;2022-08-21T07:57:49;6.57;;;1.77;;
10100;SDS011;5090;51.258;4.436;2022-08-21T08:00:19;8.85;;;1.75;;
10100;SDS011;5090;51.258;4.436;2022-08-21T08:02:46;9.60;;;2.00;;
10100;SDS011;5090;51.258;4.436;2022-08-21T08:05:14;7.78;;;2.00;;
10100;SDS011;5090;51.258;4.436;2022-08-21T08:07:42;8.48;;;1.70;;
10100;SDS011;5090;51.258;4.436;2022-08-21T08:10:17;7.85;;;1.80;;
10100;SDS011;5090;51.258;4.436;2022-08-21T08:12:46;8.80;;;2.10;;
10100;SDS011;5090;51.258;4.436;2022-08-21T08:15:15;11.32;;;2.10;;
10100;SDS011;5090;51.258;4.436;2022-08-21T08:17:42;8.50;;;1.50;;
10100;SDS011;5090;51.258;4.436;2022-08-21T08:20:12;7.20;;;1.90;;
10100;SDS011;5090;51.258;4.436;2022-08-21T08:22:39;9.05;;;2.20;;
10100;SDS011;5090;51.258;4.436;2022-08-21T08:25:07;8.40;;;1.77;;
10100;SDS011;5090;51.258;4.436;2022-08-21T08:27:35;9.13;;;1.90;;
10100;SDS011;5090;51.258;4.436;2022-08-21T08:30:04;10.93;;;2.15;;
10100;SDS011;5090;51.258;4.436;2022-08-21T08:32:32;9.20;;;2.40;;
10100;SDS011;5090;51.258;4.436;2022-08-21T08:35:00;7.62;;;1.42;;
10100;SDS011;5090;51.258;4.436;2022-08-21T08:37:28;8.85;;;1.55;;
10100;SDS011;5090;51.258;4.436;2022-08-21T08:39:57;6.57;;;1.50;;
10100;SDS011;5090;51.258;4.436;2022-08-21T08:42:27;6.82;;;1.90;;
10100;SDS011;5090;51.258;4.436;2022-08-21T08:44:57;9.90;;;1.90;;
10100;SDS011;5090;51.258;4.436;2022-08-21T08:47:24;7.82;;;1.55;;
10100;SDS011;5090;51.258;4.436;2022-08-21T08:49:54;7.12;;;1.70;;
10100;SDS011;5090;51.258;4.436;2022-08-21T08:52:21;10.63;;;1.50;;
10100;SDS011;5090;51.258;4.436;2022-08-21T08:54:51;7.60;;;1.30;;
10100;SDS011;5090;51.258;4.436;2022-08-21T08:57:19;7.47;;;1.70;;
10100;SDS011;5090;51.258;4.436;2022-08-21T08:59:47;7.82;;;1.62;;
10100;SDS011;5090;51.258;4.436;2022-08-21T09:02:15;7.03;;;2.12;;
10100;SDS011;5090;51.258;4.436;2022-08-21T09:04:44;6.47;;;1.40;;
10100;SDS011;5090;51.258;4.436;2022-08-21T09:10:09;8.15;;;1.52;;
10100;SDS011;5090;51.258;4.436;2022-08-21T09:12:38;3.50;;;1.30;;
10100;SDS011;5090;51.258;4.436;2022-08-21T09:17:51;7.18;;;1.62;;
10100;SDS011;5090;51.258;4.436;2022-08-21T09:20:19;7.18;;;1.37;;
10100;SDS011;5090;51.258;4.436;2022-08-21T09:25:31;7.43;;;1.30;;
10100;SDS011;5090;51.258;4.436;2022-08-21T09:27:59;7.20;;;1.42;;
10100;SDS011;5090;51.258;4.436;2022-08-21T09:30:30;6.50;;;1.25;;
10100;SDS011;5090;51.258;4.436;2022-08-21T09:32:56;3.05;;;1.20;;
10100;SDS011;5090;51.258;4.436;2022-08-21T09:35:24;5.15;;;1.48;;
10100;SDS011;5090;51.258;4.436;2022-08-21T09:37:55;9.00;;;1.65;;
10100;SDS011;5090;51.258;4.436;2022-08-21T09:40:43;5.15;;;1.27;;
10100;SDS011;5090;51.258;4.436;2022-08-21T09:43:18;6.82;;;1.60;;
10100;SDS011;5090;51.258;4.436;2022-08-21T09:45:48;8.50;;;1.60;;
10100;SDS011;5090;51.258;4.436;2022-08-21T09:48:18;8.90;;;2.47;;
10100;SDS011;5090;51.258;4.436;2022-08-21T09:50:43;9.60;;;2.25;;
10100;SDS011;5090;51.258;4.436;2022-08-21T09:53:15;7.70;;;2.12;;
10100;SDS011;5090;51.258;4.436;2022-08-21T09:55:55;7.28;;;2.35;;
10100;SDS011;5090;51.258;4.436;2022-08-21T09:58:45;7.05;;;2.17;;
10100;SDS011;5090;51.258;4.436;2022-08-21T10:01:13;6.12;;;1.95;;
10100;SDS011;5090;51.258;4.436;2022-08-21T10:03:40;6.90;;;1.77;;
10100;SDS011;5090;51.258;4.436;2022-08-21T10:06:09;6.25;;;1.73;;
10100;SDS011;5090;51.258;4.436;2022-08-21T10:08:38;8.77;;;2.12;;
10100;SDS011;5090;51.258;4.436;2022-08-21T10:11:07;9.43;;;2.00;;
10100;SDS011;5090;51.258;4.436;2022-08-21T10:13:39;6.53;;;2.30;;
10100;SDS011;5090;51.258;4.436;2022-08-21T10:16:12;10.40;;;2.47;;
10100;SDS011;5090;51.258;4.436;2022-08-21T10:18:39;8.68;;;2.72;;
10100;SDS011;5090;51.258;4.436;2022-08-21T10:21:10;8.73;;;2.80;;
10100;SDS011;5090;51.258;4.436;2022-08-21T10:26:25;8.52;;;2.30;;
10100;SDS011;5090;51.258;4.436;2022-08-21T10:31:44;8.13;;;2.72;;
10100;SDS011;5090;51.258;4.436;2022-08-21T10:34:11;7.85;;;2.50;;
10100;SDS011;5090;51.258;4.436;2022-08-21T10:36:43;9.55;;;2.62;;
10100;SDS011;5090;51.258;4.436;2022-08-21T10:39:16;10.15;;;2.90;;
10100;SDS011;5090;51.258;4.436;2022-08-21T10:41:53;6.05;;;2.60;;
10100;SDS011;5090;51.258;4.436;2022-08-21T10:46:54;12.40;;;4.22;;
10100;SDS011;5090;51.258;4.436;2022-08-21T10:49:25;7.00;;;3.20;;
10100;SDS011;5090;51.258;4.436;2022-08-21T10:51:55;9.35;;;3.10;;
10100;SDS011;5090;51.258;4.436;2022-08-21T10:54:27;8.23;;;3.12;;
10100;SDS011;5090;51.258;4.436;2022-08-21T10:56:54;8.55;;;2.90;;
10100;SDS011;5090;51.258;4.436;2022-08-21T10:59:28;9.75;;;3.25;;
10100;SDS011;5090;51.258;4.436;2022-08-21T11:02:03;11.50;;;3.85;;
10100;SDS011;5090;51.258;4.436;2022-08-21T11:04:35;6.78;;;3.22;;
10100;SDS011;5090;51.258;4.436;2022-08-21T11:07:06;11.57;;;3.17;;
10100;SDS011;5090;51.258;4.436;2022-08-21T11:09:33;9.32;;;3.35;;
10100;SDS011;5090;51.258;4.436;2022-08-21T11:12:05;10.15;;;3.65;;
10100;SDS011;5090;51.258;4.436;2022-08-21T11:14:39;13.65;;;4.10;;
10100;SDS011;5090;51.258;4.436;2022-08-21T11:17:07;12.52;;;4.45;;
10100;SDS011;5090;51.258;4.436;2022-08-21T11:19:51;14.02;;;3.67;;
10100;SDS011;5090;51.258;4.436;2022-08-21T11:22:18;10.20;;;3.40;;
10100;SDS011;5090;51.258;4.436;2022-08-21T11:24:49;10.20;;;3.80;;
10100;SDS011;5090;51.258;4.436;2022-08-21T11:27:21;8.40;;;3.20;;
10100;SDS011;5090;51.258;4.436;2022-08-21T11:29:50;11.27;;;3.53;;
10100;SDS011;5090;51.258;4.436;2022-08-21T11:32:24;8.32;;;3.30;;
10100;SDS011;5090;51.258;4.436;2022-08-21T11:34:59;11.57;;;3.78;;
10100;SDS011;5090;51.258;4.436;2022-08-21T11:40:06;9.00;;;2.30;;
10100;SDS011;5090;51.258;4.436;2022-08-21T11:42:38;10.60;;;2.53;;
10100;SDS011;5090;51.258;4.436;2022-08-21T11:45:20;9.50;;;2.67;;
10100;SDS011;5090;51.258;4.436;2022-08-21T11:50:30;7.40;;;2.30;;
10100;SDS011;5090;51.258;4.436;2022-08-21T11:53:05;10.70;;;3.03;;
10100;SDS011;5090;51.258;4.436;2022-08-21T11:55:35;11.95;;;3.15;;
10100;SDS011;5090;51.258;4.436;2022-08-21T12:03:28;9.00;;;2.83;;
10100;SDS011;5090;51.258;4.436;2022-08-21T12:06:07;10.02;;;3.75;;
10100;SDS011;5090;51.258;4.436;2022-08-21T12:08:37;6.22;;;2.33;;
10100;SDS011;5090;51.258;4.436;2022-08-21T12:11:06;6.62;;;1.98;;
10100;SDS011;5090;51.258;4.436;2022-08-21T12:16:30;8.88;;;1.98;;
10100;SDS011;5090;51.258;4.436;2022-08-21T12:19:05;6.05;;;1.98;;
10100;SDS011;5090;51.258;4.436;2022-08-21T12:21:47;12.90;;;1.98;;
10100;SDS011;5090;51.258;4.436;2022-08-21T12:29:15;9.32;;;1.92;;
10100;SDS011;5090;51.258;4.436;2022-08-21T12:34:22;9.10;;;2.10;;
10100;SDS011;5090;51.258;4.436;2022-08-21T12:36:53;7.57;;;1.92;;
10100;SDS011;5090;51.258;4.436;2022-08-21T12:39:21;7.70;;;2.50;;
10100;SDS011;5090;51.258;4.436;2022-08-21T12:41:49;9.80;;;2.60;;
10100;SDS011;5090;51.258;4.436;2022-08-21T12:44:20;8.27;;;2.45;;
10100;SDS011;5090;51.258;4.436;2022-08-21T12:46:48;11.07;;;2.62;;
10100;SDS011;5090;51.258;4.436;2022-08-21T12:49:18;10.85;;;2.40;;
10100;SDS011;5090;51.258;4.436;2022-08-21T12:52:07;7.78;;;2.08;;
10100;SDS011;5090;51.258;4.436;2022-08-21T12:54:36;10.70;;;2.60;;
10100;SDS011;5090;51.258;4.436;2022-08-21T12:57:02;9.52;;;2.42;;
10100;SDS011;5090;51.258;4.436;2022-08-21T12:59:29;6.85;;;2.22;;
10100;SDS011;5090;51.258;4.436;2022-08-21T13:01:58;10.73;;;2.60;;
10100;SDS011;5090;51.258;4.436;2022-08-21T13:06:59;8.95;;;2.87;;
10100;SDS011;5090;51.258;4.436;2022-08-21T13:09:28;8.25;;;1.95;;
10100;SDS011;5090;51.258;4.436;2022-08-21T13:11:55;7.05;;;2.00;;
10100;SDS011;5090;51.258;4.436;2022-08-21T13:14:28;6.60;;;2.17;;
10100;SDS011;5090;51.258;4.436;2022-08-21T13:16:54;9.23;;;1.77;;
10100;SDS011;5090;51.258;4.436;2022-08-21T13:19:22;5.90;;;1.67;;
10100;SDS011;5090;51.258;4.436;2022-08-21T13:21:50;7.18;;;1.77;;
10100;SDS011;5090;51.258;4.436;2022-08-21T13:24:21;10.63;;;1.73;;
10100;SDS011;5090;51.258;4.436;2022-08-21T13:26:48;7.97;;;1.58;;
10100;SDS011;5090;51.258;4.436;2022-08-21T13:29:19;6.75;;;1.65;;
10100;SDS011;5090;51.258;4.436;2022-08-21T13:31:49;3.80;;;1.17;;
10100;SDS011;5090;51.258;4.436;2022-08-21T13:34:16;6.40;;;1.60;;
10100;SDS011;5090;51.258;4.436;2022-08-21T13:36:45;7.03;;;1.73;;
10100;SDS011;5090;51.258;4.436;2022-08-21T13:39:14;9.48;;;1.98;;
10100;SDS011;5090;51.258;4.436;2022-08-21T13:41:43;6.28;;;1.60;;
10100;SDS011;5090;51.258;4.436;2022-08-21T13:46:47;5.37;;;1.98;;
10100;SDS011;5090;51.258;4.436;2022-08-21T13:49:16;10.30;;;1.80;;
10100;SDS011;5090;51.258;4.436;2022-08-21T13:51:48;7.22;;;1.40;;
10100;SDS011;5090;51.258;4.436;2022-08-21T13:54:23;9.68;;;1.85;;
10100;SDS011;5090;51.258;4.436;2022-08-21T13:56:50;9.98;;;2.10;;
10100;SDS011;5090;51.258;4.436;2022-08-21T13:59:24;3.97;;;1.17;;
10100;SDS011;5090;51.258;4.436;2022-08-21T14:01:52;9.20;;;1.77;;
10100;SDS011;5090;51.258;4.436;2022-08-21T14:04:23;6.80;;;1.35;;
10100;SDS011;5090;51.258;4.436;2022-08-21T14:06:50;6.72;;;1.35;;
10100;SDS011;5090;51.258;4.436;2022-08-21T14:09:26;5.57;;;1.15;;
10100;SDS011;5090;51.258;4.436;2022-08-21T14:11:51;8.57;;;1.58;;
10100;SDS011;5090;51.258;4.436;2022-08-21T14:14:22;5.90;;;1.50;;
10100;SDS011;5090;51.258;4.436;2022-08-21T14:16:54;6.55;;;1.92;;
10100;SDS011;5090;51.258;4.436;2022-08-21T14:22:00;6.85;;;2.17;;
10100;SDS011;5090;51.258;4.436;2022-08-21T14:24:29;5.65;;;1.73;;
10100;SDS011;5090;51.258;4.436;2022-08-21T14:27:01;11.15;;;1.92;;
10100;SDS011;5090;51.258;4.436;2022-08-21T14:29:26;9.27;;;1.95;;
10100;SDS011;5090;51.258;4.436;2022-08-21T14:31:56;8.25;;;1.80;;
10100;SDS011;5090;51.258;4.436;2022-08-21T14:34:24;5.00;;;1.27;;
10100;SDS011;5090;51.258;4.436;2022-08-21T14:36:55;14.07;;;2.05;;
10100;SDS011;5090;51.258;4.436;2022-08-21T14:39:21;5.87;;;1.55;;
10100;SDS011;5090;51.258;4.436;2022-08-21T14:41:56;8.77;;;1.85;;
10100;SDS011;5090;51.258;4.436;2022-08-21T14:44:17;8.70;;;2.28;;
10100;SDS011;5090;51.258;4.436;2022-08-21T14:46:48;7.70;;;1.50;;
10100;SDS011;5090;51.258;4.436;2022-08-21T14:49:20;8.90;;;2.12;;
10100;SDS011;5090;51.258;4.436;2022-08-21T14:51:48;6.60;;;2.00;;
10100;SDS011;5090;51.258;4.436;2022-08-21T14:54:17;5.45;;;1.30;;
10100;SDS011;5090;51.258;4.436;2022-08-21T14:56:45;7.93;;;2.12;;
10100;SDS011;5090;51.258;4.436;2022-08-21T14:59:13;5.47;;;1.55;;
10100;SDS011;5090;51.258;4.436;2022-08-21T15:01:41;6.37;;;2.00;;
10100;SDS011;5090;51.258;4.436;2022-08-21T15:04:09;6.87;;;1.75;;
10100;SDS011;5090;51.258;4.436;2022-08-21T15:06:38;6.00;;;1.30;;
10100;SDS011;5090;51.258;4.436;2022-08-21T15:09:06;9.48;;;1.87;;
10100;SDS011;5090;51.258;4.436;2022-08-21T15:11:35;5.12;;;1.90;;
10100;SDS011;5090;51.258;4.436;2022-08-21T15:14:05;6.80;;;1.62;;
10100;SDS011;5090;51.258;4.436;2022-08-21T15:16:32;8.45;;;2.03;;
10100;SDS011;5090;51.258;4.436;2022-08-21T15:19:00;6.28;;;1.90;;
10100;SDS011;5090;51.258;4.436;2022-08-21T15:21:28;7.03;;;2.08;;
10100;SDS011;5090;51.258;4.436;2022-08-21T15:23:56;10.85;;;1.95;;
10100;SDS011;5090;51.258;4.436;2022-08-21T15:26:24;7.53;;;1.87;;
10100;SDS011;5090;51.258;4.436;2022-08-21T15:28:53;7.45;;;1.70;;
10100;SDS011;5090;51.258;4.436;2022-08-21T15:31:21;6.53;;;1.70;;
10100;SDS011;5090;51.258;4.436;2022-08-21T15:33:49;10.52;;;2.12;;
10100;SDS011;5090;51.258;4.436;2022-08-21T15:36:18;6.93;;;1.73;;
10100;SDS011;5090;51.258;4.436;2022-08-21T15:38:46;7.47;;;1.67;;
10100;SDS011;5090;51.258;4.436;2022-08-21T15:41:14;5.00;;;1.50;;
10100;SDS011;5090;51.258;4.436;2022-08-21T15:43:57;5.28;;;2.03;;
10100;SDS011;5090;51.258;4.436;2022-08-21T15:46:25;5.22;;;1.95;;
10100;SDS011;5090;51.258;4.436;2022-08-21T15:48:54;7.80;;;2.25;;
10100;SDS011;5090;51.258;4.436;2022-08-21T15:51:22;7.10;;;1.98;;
10100;SDS011;5090;51.258;4.436;2022-08-21T15:53:50;11.15;;;2.00;;